Time;durP1;ratioP1;P1;durP2;ratioP2;P2;SDS_P1;SDS_P2;PMS_P1;PMS_P2;Temp;Humidity;BMP_temperature;BMP_pressure;BME280_temperature;BME280_humidity;BME280_pressure;Samples;Min_cycle;Max_cycle;Signal;HPM_P1;HPM_P2
2022/10/07 00:01:20;;;;;;;6.88;2.80;;;;;;;10.14;100.00;99931.84;5010072;28;20025;-69
2022/10/07 00:03:46;;;;;;;4.10;2.35;;;;;;;10.15;100.00;99929.97;5014344;28;20068;-68
2022/10/07 00:06:16;;;;;;;8.73;2.80;;;;;;;10.15;100.00;99936.22;5009643;28;20112;-68
2022/10/07 00:08:47;;;;;;;12.13;2.70;;;;;;;10.25;100.00;99928.75;5007291;28;20037;-68
2022/10/07 00:11:16;;;;;;;5.03;2.42;;;;;;;10.25;100.00;99938.75;5007486;28;20026;-68
2022/10/07 00:13:44;;;;;;;6.47;2.50;;;;;;;10.24;100.00;99916.28;5004878;28;20029;-69
2022/10/07 00:16:12;;;;;;;6.85;2.92;;;;;;;10.22;100.00;99923.72;5011226;28;20037;-68
2022/10/07 00:18:38;;;;;;;10.15;2.70;;;;;;;10.30;100.00;99931.81;5001292;28;20435;-68
2022/10/07 00:21:07;;;;;;;9.75;3.10;;;;;;;10.28;100.00;99925.75;5002342;28;20040;-68
2022/10/07 00:23:33;;;;;;;12.02;3.17;;;;;;;10.30;100.00;99926.41;5009991;28;20026;-69
2022/10/07 00:26:03;;;;;;;10.93;2.80;;;;;;;10.26;100.00;99914.22;5007645;28;20117;-68
2022/10/07 00:28:29;;;;;;;10.57;2.55;;;;;;;10.28;100.00;99920.31;5008470;28;20022;-68
2022/10/07 00:30:59;;;;;;;12.20;2.97;;;;;;;10.18;100.00;99903.41;4998634;28;20026;-68
2022/10/07 00:33:25;;;;;;;6.30;3.25;;;;;;;10.26;100.00;99919.63;5005342;28;20032;-69
2022/10/07 00:35:50;;;;;;;6.35;2.83;;;;;;;10.44;100.00;99911.31;5010167;28;20026;-68
2022/10/07 00:38:16;;;;;;;8.45;2.88;;;;;;;10.47;100.00;99908.25;5005162;28;20032;-68
2022/10/07 00:40:41;;;;;;;8.55;2.50;;;;;;;10.48;100.00;99901.84;5003774;28;20038;-67
2022/10/07 00:43:30;;;;;;;7.18;2.92;;;;;;;10.47;100.00;99899.28;5009862;28;20025;-68
2022/10/07 00:46:11;;;;;;;4.50;2.53;;;;;;;10.41;100.00;99889.19;5005847;28;20419;-68
2022/10/07 00:48:38;;;;;;;6.97;3.58;;;;;;;10.42;100.00;99891.69;5010716;28;20498;-67
2022/10/07 00:51:06;;;;;;;4.60;2.22;;;;;;;10.40;100.00;99876.66;4999984;28;20046;-68
2022/10/07 00:53:35;;;;;;;8.02;3.42;;;;;;;10.39;100.00;99891.22;5007122;28;20030;-68
2022/10/07 00:56:02;;;;;;;5.43;2.60;;;;;;;10.44;100.00;99888.81;5005826;28;20026;-68
2022/10/07 00:58:31;;;;;;;10.57;2.97;;;;;;;10.31;100.00;99874.00;5004370;28;20373;-68
2022/10/07 01:00:56;;;;;;;8.63;2.47;;;;;;;10.34;100.00;99882.78;5001290;28;20348;-68
2022/10/07 01:03:23;;;;;;;9.13;2.70;;;;;;;10.43;100.00;99870.91;5004634;28;20034;-67
2022/10/07 01:05:49;;;;;;;11.02;2.45;;;;;;;10.44;100.00;99878.84;5000663;28;20044;-67
2022/10/07 01:08:15;;;;;;;6.68;2.20;;;;;;;10.41;100.00;99873.78;5006322;28;20403;-68
2022/10/07 01:10:47;;;;;;;4.32;1.90;;;;;;;10.30;100.00;99860.66;4997075;28;20070;-68
2022/10/07 01:13:22;;;;;;;6.18;2.22;;;;;;;10.51;100.00;99858.19;5005258;28;20061;-68
2022/10/07 01:16:04;;;;;;;5.55;1.63;;;;;;;10.44;100.00;99865.31;4998868;28;20026;-68
2022/10/07 01:18:40;;;;;;;8.27;2.10;;;;;;;10.50;100.00;99866.47;5008066;28;20028;-68
2022/10/07 01:21:31;;;;;;;4.93;2.03;;;;;;;10.47;100.00;99861.41;5007094;28;20099;-68
2022/10/07 01:24:05;;;;;;;7.43;2.08;;;;;;;10.53;100.00;99845.31;5001575;28;20034;-68
2022/10/07 01:27:00;;;;;;;6.32;2.00;;;;;;;10.47;100.00;99850.59;4999700;28;20057;-68
2022/10/07 01:29:42;;;;;;;8.65;1.90;;;;;;;10.56;100.00;99846.84;5004198;28;20117;-68
2022/10/07 01:32:31;;;;;;;2.60;1.95;;;;;;;10.52;100.00;99840.09;5001436;28;20108;-68
2022/10/07 01:34:58;;;;;;;11.17;3.17;;;;;;;10.48;100.00;99839.59;4998376;28;20084;-69
2022/10/07 01:37:30;;;;;;;7.05;2.33;;;;;;;10.50;100.00;99834.00;5005034;28;20285;-68
2022/10/07 01:40:02;;;;;;;6.75;2.10;;;;;;;10.51;100.00;99825.72;5004826;28;20018;-68
2022/10/07 01:42:28;;;;;;;8.05;2.30;;;;;;;10.47;100.00;99815.41;5005160;28;20038;-68
2022/10/07 01:44:56;;;;;;;8.95;1.95;;;;;;;10.66;100.00;99823.09;5003607;28;20021;-67
2022/10/07 01:47:24;;;;;;;6.37;2.07;;;;;;;10.58;100.00;99812.28;4999019;28;20037;-68
2022/10/07 01:49:49;;;;;;;6.93;2.00;;;;;;;10.65;100.00;99821.41;5000686;28;20099;-67
2022/10/07 01:52:33;;;;;;;9.60;1.85;;;;;;;10.64;100.00;99817.03;5004514;28;20033;-68
2022/10/07 01:55:31;;;;;;;8.73;1.98;;;;;;;10.61;100.00;99809.25;5004717;28;20033;-68
2022/10/07 01:58:02;;;;;;;9.35;1.90;;;;;;;10.59;100.00;99811.28;5007622;28;20036;-68
2022/10/07 02:00:28;;;;;;;8.23;2.20;;;;;;;10.58;100.00;99806.06;5010847;28;20109;-68
2022/10/07 02:03:02;;;;;;;6.93;1.95;;;;;;;10.63;100.00;99803.66;5005944;28;20766;-68
2022/10/07 02:05:45;;;;;;;3.33;1.90;;;;;;;10.58;100.00;99796.06;5008877;28;20044;-68
2022/10/07 02:08:22;;;;;;;5.07;2.17;;;;;;;10.59;100.00;99791.53;5000276;28;20803;-68
2022/10/07 02:11:00;;;;;;;5.97;2.00;;;;;;;10.63;100.00;99800.94;4997792;28;20030;-67
2022/10/07 02:13:36;;;;;;;9.55;2.20;;;;;;;10.70;100.00;99807.34;5006664;28;20376;-68
2022/10/07 02:16:14;;;;;;;5.18;2.20;;;;;;;10.72;100.00;99797.19;5000709;28;20052;-68
2022/10/07 02:18:44;;;;;;;7.53;2.10;;;;;;;10.72;100.00;99791.75;5009047;28;20029;-68
2022/10/07 02:21:10;;;;;;;6.53;2.22;;;;;;;10.66;100.00;99790.63;5004001;28;20014;-68
2022/10/07 02:23:39;;;;;;;5.53;2.00;;;;;;;10.79;100.00;99786.47;5006677;28;20084;-68
2022/10/07 02:26:09;;;;;;;5.80;1.65;;;;;;;10.69;100.00;99774.03;5006185;28;20072;-68
2022/10/07 02:28:39;;;;;;;4.80;1.73;;;;;;;10.71;100.00;99784.66;5000318;28;20119;-68
2022/10/07 02:31:07;;;;;;;8.57;2.42;;;;;;;10.80;100.00;99780.03;5000679;28;20022;-68
2022/10/07 02:33:34;;;;;;;8.37;2.23;;;;;;;10.84;100.00;99775.94;5007695;28;20025;-68
2022/10/07 02:36:06;;;;;;;7.13;2.58;;;;;;;10.91;100.00;99764.19;4998666;28;20137;-68
2022/10/07 02:38:32;;;;;;;7.13;2.10;;;;;;;11.06;100.00;99769.66;5006219;28;20491;-66
2022/10/07 02:41:09;;;;;;;6.93;2.05;;;;;;;10.87;100.00;99772.84;5003105;28;20038;-68
2022/10/07 02:43:51;;;;;;;5.60;2.28;;;;;;;10.73;100.00;99780.75;5007284;28;20038;-68
2022/10/07 02:46:25;;;;;;;7.25;2.00;;;;;;;10.73;100.00;99769.06;4999873;28;20088;-67
2022/10/07 02:49:00;;;;;;;6.55;2.20;;;;;;;10.75;100.00;99770.59;5007457;28;20109;-67
2022/10/07 02:51:32;;;;;;;10.50;2.50;;;;;;;10.78;100.00;99768.53;5007316;28;20613;-68
2022/10/07 02:54:01;;;;;;;6.75;2.28;;;;;;;10.64;100.00;99762.06;5007092;28;20022;-68
2022/10/07 02:56:30;;;;;;;10.93;2.38;;;;;;;10.64;100.00;99764.75;5006909;28;20140;-67
2022/10/07 02:58:59;;;;;;;5.35;2.88;;;;;;;10.62;100.00;99762.22;5006628;28;20087;-68
2022/10/07 03:01:31;;;;;;;4.73;2.00;;;;;;;10.65;100.00;99761.84;5011001;28;20097;-68
2022/10/07 03:03:56;;;;;;;4.85;2.40;;;;;;;10.63;100.00;99760.34;5005062;28;20293;-69
2022/10/07 03:06:23;;;;;;;5.20;2.67;;;;;;;10.61;100.00;99755.13;5006875;28;20034;-68
2022/10/07 03:08:50;;;;;;;6.93;2.42;;;;;;;10.57;100.00;99745.69;5010892;28;20483;-69
2022/10/07 03:11:16;;;;;;;6.75;2.40;;;;;;;10.65;100.00;99750.19;5000464;28;20109;-68
2022/10/07 03:13:41;;;;;;;5.13;2.08;;;;;;;10.61;100.00;99747.03;5003479;28;20145;-68
2022/10/07 03:16:06;;;;;;;8.43;2.63;;;;;;;10.67;100.00;99751.69;5006465;28;20033;-68
2022/10/07 03:18:32;;;;;;;9.02;2.30;;;;;;;10.72;100.00;99752.00;5005541;28;20029;-68
2022/10/07 03:20:59;;;;;;;7.95;1.77;;;;;;;10.71;100.00;99741.34;5006853;28;20018;-69
2022/10/07 03:23:27;;;;;;;12.18;2.35;;;;;;;10.70;100.00;99742.38;5003689;28;20041;-68
2022/10/07 03:25:54;;;;;;;7.15;2.22;;;;;;;10.78;100.00;99747.72;5010084;28;20028;-68
2022/10/07 03:28:21;;;;;;;6.00;2.13;;;;;;;10.77;100.00;99739.78;5006268;28;20041;-67
2022/10/07 03:30:47;;;;;;;5.65;1.85;;;;;;;10.57;100.00;99720.50;5003849;28;20072;-68
2022/10/07 03:33:14;;;;;;;8.27;1.95;;;;;;;10.64;100.00;99735.00;5007906;28;20041;-68
2022/10/07 03:35:39;;;;;;;4.53;1.98;;;;;;;10.72;100.00;99735.75;5004933;28;20063;-68
2022/10/07 03:38:07;;;;;;;6.72;2.30;;;;;;;10.65;100.00;99733.97;5004592;28;20859;-67
2022/10/07 03:40:33;;;;;;;7.32;2.25;;;;;;;10.63;100.00;99720.59;5003190;28;20550;-68
2022/10/07 03:42:59;;;;;;;6.50;2.28;;;;;;;10.66;100.00;99731.09;5002660;28;20029;-68
2022/10/07 03:45:24;;;;;;;5.18;2.10;;;;;;;10.72;100.00;99732.22;5008843;28;20034;-67
2022/10/07 03:47:49;;;;;;;8.63;2.25;;;;;;;10.70;100.00;99726.13;5006692;28;20068;-68
2022/10/07 03:50:15;;;;;;;8.23;2.25;;;;;;;10.70;100.00;99726.13;5002585;28;20030;-68
2022/10/07 03:52:40;;;;;;;10.20;2.17;;;;;;;10.67;100.00;99723.81;4999194;28;20026;-68
2022/10/07 03:55:07;;;;;;;7.78;2.50;;;;;;;10.67;100.00;99721.94;4999787;28;20081;-72
2022/10/07 03:57:51;;;;;;;6.85;2.38;;;;;;;10.62;100.00;99709.97;5007631;28;20575;-70
2022/10/07 04:00:19;;;;;;;6.43;2.15;;;;;;;10.70;100.00;99726.97;4994906;28;20415;-70
2022/10/07 04:02:46;;;;;;;6.55;2.28;;;;;;;10.67;100.00;99713.81;5003893;28;20026;-75
2022/10/07 04:05:14;;;;;;;5.88;2.28;;;;;;;10.71;100.00;99716.97;5005136;28;20030;-75
2022/10/07 04:07:42;;;;;;;6.30;2.30;;;;;;;10.66;100.00;99719.38;5007279;28;20075;-73
2022/10/07 04:10:08;;;;;;;5.07;2.15;;;;;;;10.66;100.00;99722.97;5000532;28;20040;-73
2022/10/07 04:12:33;;;;;;;5.75;2.22;;;;;;;10.61;100.00;99711.84;5002437;28;20053;-73
2022/10/07 04:15:00;;;;;;;4.82;2.15;;;;;;;10.62;100.00;99707.25;5007742;28;20049;-71
2022/10/07 04:17:26;;;;;;;8.00;2.50;;;;;;;10.61;100.00;99716.38;5007185;28;20036;-73
2022/10/07 04:19:51;;;;;;;4.25;2.33;;;;;;;10.62;100.00;99718.94;5004460;28;20025;-72
2022/10/07 04:22:16;;;;;;;6.45;2.58;;;;;;;10.60;100.00;99715.56;4999546;28;20518;-72
2022/10/07 04:24:42;;;;;;;10.75;2.38;;;;;;;10.57;100.00;99713.22;5003556;28;20065;-75
2022/10/07 04:27:07;;;;;;;5.20;2.00;;;;;;;10.54;100.00;99705.47;5004703;28;20060;-74
2022/10/07 04:29:32;;;;;;;5.22;2.35;;;;;;;10.61;100.00;99705.56;5003033;28;20030;-74
2022/10/07 04:31:57;;;;;;;8.68;2.25;;;;;;;10.55;100.00;99700.88;5011244;28;20550;-74
2022/10/07 04:34:24;;;;;;;8.48;2.28;;;;;;;10.53;100.00;99698.34;5008483;28;20018;-76
2022/10/07 04:36:52;;;;;;;5.80;2.85;;;;;;;10.48;100.00;99689.97;5009489;28;20029;-76
2022/10/07 04:39:17;;;;;;;10.50;2.70;;;;;;;10.52;100.00;99696.69;5009871;28;20025;-77
2022/10/07 04:41:43;;;;;;;6.85;2.67;;;;;;;10.55;100.00;99699.00;5011201;28;20143;-77
2022/10/07 04:44:08;;;;;;;9.90;2.40;;;;;;;10.57;100.00;99678.03;5008568;28;20030;-72
2022/10/07 04:46:33;;;;;;;5.43;2.50;;;;;;;10.77;100.00;99704.59;5004915;28;20033;-69
2022/10/07 04:48:59;;;;;;;6.97;2.65;;;;;;;10.78;100.00;99698.16;4998517;28;20026;-73
2022/10/07 04:51:24;;;;;;;5.03;2.33;;;;;;;10.78;100.00;99690.03;5007178;28;20025;-73
2022/10/07 04:53:53;;;;;;;4.15;1.83;;;;;;;10.71;100.00;99685.34;5007191;28;20157;-75
2022/10/07 04:56:19;;;;;;;8.70;2.72;;;;;;;10.78;100.00;99681.94;5001791;28;20033;-75
2022/10/07 04:58:44;;;;;;;8.32;2.30;;;;;;;10.88;100.00;99685.22;5005652;28;20114;-72
2022/10/07 05:01:10;;;;;;;4.97;2.25;;;;;;;10.82;100.00;99691.34;5001057;28;20026;-72
2022/10/07 05:03:37;;;;;;;5.85;2.35;;;;;;;10.82;100.00;99694.06;5005456;28;20458;-73
2022/10/07 05:06:03;;;;;;;8.23;3.03;;;;;;;10.87;100.00;99686.22;5005592;28;20026;-75
2022/10/07 05:08:29;;;;;;;8.95;2.63;;;;;;;10.81;100.00;99685.09;5004057;28;20040;-75
2022/10/07 05:11:01;;;;;;;6.20;2.45;;;;;;;10.67;100.00;99669.69;5001312;28;20030;-79
2022/10/07 05:13:26;;;;;;;7.30;2.50;;;;;;;10.74;100.00;99676.88;5008441;28;20044;-74
2022/10/07 05:16:02;;;;;;;8.63;2.47;;;;;;;10.71;100.00;99679.09;5002744;28;20030;-75
2022/10/07 05:18:29;;;;;;;6.57;2.40;;;;;;;10.66;100.00;99676.97;5001467;28;20172;-73
2022/10/07 05:20:55;;;;;;;6.95;2.47;;;;;;;10.63;100.00;99671.06;5005121;28;20627;-72
2022/10/07 05:23:22;;;;;;;5.47;1.95;;;;;;;10.63;100.00;99671.88;5005839;28;20147;-75
2022/10/07 05:26:01;;;;;;;6.85;2.38;;;;;;;10.64;100.00;99678.16;5001217;28;20030;-74
2022/10/07 05:28:26;;;;;;;12.25;2.55;;;;;;;10.64;100.00;99670.03;5003118;28;20120;-76
2022/10/07 05:31:04;;;;;;;6.78;2.80;;;;;;;10.59;100.00;99662.47;5006385;28;20034;-75
2022/10/07 05:33:30;;;;;;;5.78;2.60;;;;;;;10.77;100.00;99686.50;5011131;28;20026;-77
2022/10/07 05:35:56;;;;;;;10.18;2.53;;;;;;;10.77;100.00;99678.38;5008633;28;20037;-76
2022/10/07 05:38:21;;;;;;;7.28;3.05;;;;;;;10.73;100.00;99653.53;5010228;28;20033;-76
2022/10/07 05:40:55;;;;;;;7.65;2.70;;;;;;;10.70;100.00;99639.53;5005838;28;20035;-73
2022/10/07 05:43:20;;;;;;;7.20;2.65;;;;;;;10.92;100.00;99667.56;5001318;28;20056;-71
2022/10/07 05:45:46;;;;;;;11.95;2.80;;;;;;;10.92;100.00;99654.03;5008629;28;20631;-70
2022/10/07 05:48:11;;;;;;;5.93;2.88;;;;;;;11.03;100.00;99667.13;5004036;28;20040;-71
2022/10/07 05:50:38;;;;;;;11.77;3.08;;;;;;;11.08;100.00;99666.56;5006677;28;20496;-71
2022/10/07 05:53:04;;;;;;;6.80;2.55;;;;;;;11.08;100.00;99663.84;5006652;28;20037;-75
2022/10/07 05:55:29;;;;;;;6.38;2.70;;;;;;;11.06;100.00;99655.94;5013316;28;20087;-74
2022/10/07 05:57:54;;;;;;;9.43;2.60;;;;;;;11.15;100.00;99654.78;5015084;28;20396;-75
2022/10/07 06:00:20;;;;;;;9.73;2.72;;;;;;;11.19;100.00;99648.00;5007410;28;20553;-75
2022/10/07 06:02:45;;;;;;;9.88;2.90;;;;;;;11.23;100.00;99642.19;5006485;28;20072;-75
2022/10/07 06:05:11;;;;;;;6.78;2.33;;;;;;;11.37;100.00;99649.47;5006063;28;20041;-74
2022/10/07 06:07:36;;;;;;;9.13;2.40;;;;;;;11.37;100.00;99638.63;5012406;28;20037;-76
2022/10/07 06:15:30;;;;;;;8.65;2.40;;;;;;;11.59;100.00;99648.53;5011375;28;20105;-72
2022/10/07 06:17:55;;;;;;;6.22;2.40;;;;;;;11.61;100.00;99642.91;5010823;28;20029;-71
2022/10/07 06:20:20;;;;;;;9.48;2.30;;;;;;;11.64;100.00;99631.69;5010595;28;20037;-71
2022/10/07 06:22:45;;;;;;;8.18;2.38;;;;;;;11.76;100.00;99642.88;5012258;28;20034;-71
2022/10/07 06:25:11;;;;;;;7.72;2.33;;;;;;;11.78;100.00;99644.38;4999790;28;20467;-71
2022/10/07 06:27:36;;;;;;;6.72;2.25;;;;;;;11.79;100.00;99629.78;5016336;28;21334;-70
2022/10/07 06:30:02;;;;;;;8.25;2.28;;;;;;;11.98;100.00;99641.09;5016627;28;20037;-71
2022/10/07 06:32:31;;;;;;;9.85;2.60;;;;;;;11.96;100.00;99646.69;5016815;28;20105;-70
2022/10/07 06:34:56;;;;;;;;;;;;;;;12.10;100.00;99644.13;5015644;28;20026;-70
2022/10/07 06:37:22;;;;;;;5.72;1.95;;;;;;;12.10;100.00;99630.56;5024262;28;19993;-68
2022/10/07 06:39:47;;;;;;;7.25;2.15;;;;;;;12.28;100.00;99639.09;5019298;28;20034;-74
2022/10/07 06:42:12;;;;;;;10.15;2.45;;;;;;;12.31;100.00;99646.84;5009230;28;20029;-72
2022/10/07 06:44:38;;;;;;;5.82;1.98;;;;;;;12.51;100.00;99638.88;5009673;28;20544;-70
2022/10/07 06:47:03;;;;;;;9.35;2.10;;;;;;;12.67;100.00;99632.34;5012336;28;20547;-71
2022/10/07 06:49:30;;;;;;;7.60;2.13;;;;;;;12.76;100.00;99633.88;5003600;28;20030;-72
2022/10/07 06:51:55;;;;;;;5.35;2.30;;;;;;;12.84;100.00;99631.03;5005619;28;20159;-72
2022/10/07 06:54:20;;;;;;;3.50;1.92;;;;;;;12.96;100.00;99623.16;5007325;28;20144;-75
2022/10/07 06:56:45;;;;;;;8.05;2.30;;;;;;;13.03;100.00;99626.75;5004471;28;20091;-73
2022/10/07 06:59:11;;;;;;;6.65;2.00;;;;;;;13.36;100.00;99639.72;5006935;28;20686;-74
2022/10/07 07:01:36;;;;;;;5.15;1.83;;;;;;;13.49;100.00;99626.22;5008477;28;20268;-76
2022/10/07 07:04:01;;;;;;;8.38;2.03;;;;;;;13.64;100.00;99620.63;5011165;28;20030;-74
2022/10/07 07:06:27;;;;;;;7.07;2.38;;;;;;;13.89;100.00;99629.09;5005658;28;20025;-70
2022/10/07 07:08:54;;;;;;;8.88;2.65;;;;;;;13.99;100.00;99612.34;4997524;28;20120;-73
2022/10/07 07:11:35;;;;;;;6.45;2.40;;;;;;;14.20;100.00;99633.97;4997919;28;20072;-72
2022/10/07 07:14:02;;;;;;;9.43;2.38;;;;;;;14.13;100.00;99627.69;5001929;28;20022;-73
2022/10/07 07:16:28;;;;;;;7.80;2.20;;;;;;;14.44;100.00;99639.88;4996046;28;20516;-71
2022/10/07 07:18:56;;;;;;;5.97;2.53;;;;;;;14.40;100.00;99642.16;5003741;28;20555;-69
2022/10/07 07:21:22;;;;;;;6.38;2.17;;;;;;;14.69;100.00;99643.66;4996685;28;20050;-67
2022/10/07 07:23:48;;;;;;;5.38;2.30;;;;;;;14.85;100.00;99631.50;5001365;28;20046;-69
2022/10/07 07:26:14;;;;;;;6.15;2.38;;;;;;;15.32;100.00;99628.69;4999026;28;20052;-68
2022/10/07 07:28:39;;;;;;;6.88;2.53;;;;;;;15.75;100.00;99626.28;5003792;28;20037;-67
2022/10/07 07:31:09;;;;;;;6.57;2.35;;;;;;;15.99;100.00;99615.66;4996042;28;20019;-67
2022/10/07 07:33:38;;;;;;;7.30;2.55;;;;;;;16.65;100.00;99630.75;5003773;28;20038;-71
2022/10/07 07:36:14;;;;;;;9.40;2.30;;;;;;;17.11;100.00;99624.06;4996610;28;20042;-68
2022/10/07 07:38:41;;;;;;;5.72;2.10;;;;;;;17.45;100.00;99628.13;5003523;28;20034;-72
2022/10/07 07:41:06;;;;;;;6.72;2.30;;;;;;;18.24;100.00;99633.66;4992853;28;20030;-72
2022/10/07 07:43:32;;;;;;;9.80;2.55;;;;;;;18.70;100.00;99628.50;5000301;28;20053;-66
2022/10/07 07:45:58;;;;;;;7.75;2.10;;;;;;;20.26;91.79;99622.31;5002373;28;20045;-68
2022/10/07 07:48:24;;;;;;;5.88;2.25;;;;;;;20.64;80.32;99618.06;5000457;28;20092;-67
2022/10/07 07:50:49;;;;;;;6.95;2.05;;;;;;;22.70;70.82;99621.25;4996454;28;20022;-71
2022/10/07 07:53:14;;;;;;;7.05;2.00;;;;;;;23.70;63.08;99616.94;4998140;28;20038;-69
2022/10/07 07:56:01;;;;;;;8.52;2.08;;;;;;;25.00;58.22;99613.06;5002283;28;20066;-67
2022/10/07 07:58:26;;;;;;;7.57;2.10;;;;;;;25.23;57.39;99613.56;5000489;28;20045;-69
2022/10/07 08:00:59;;;;;;;7.30;1.98;;;;;;;24.63;56.53;99607.81;5008798;28;20607;-77
2022/10/07 08:03:25;;;;;;;4.45;1.95;;;;;;;25.49;56.43;99606.03;5002476;28;20496;-72
2022/10/07 08:05:51;;;;;;;2.83;1.50;;;;;;;25.95;51.93;99592.84;5000993;28;20029;-72
2022/10/07 08:08:16;;;;;;;6.90;1.80;;;;;;;26.37;51.11;99598.97;5007328;28;20139;-73
2022/10/07 08:10:41;;;;;;;5.32;1.90;;;;;;;25.77;52.31;99601.78;5007289;28;20053;-74
2022/10/07 08:13:07;;;;;;;4.78;1.67;;;;;;;26.32;52.49;99602.59;5003951;28;20026;-74
2022/10/07 08:15:32;;;;;;;5.75;1.50;;;;;;;27.41;49.82;99601.38;5001814;28;20558;-70
2022/10/07 08:17:58;;;;;;;6.07;1.75;;;;;;;27.82;47.63;99600.09;5004761;28;20620;-71
2022/10/07 08:20:23;;;;;;;4.13;1.40;;;;;;;28.89;45.29;99589.28;4991549;28;20022;-69
2022/10/07 08:22:48;;;;;;;5.10;1.60;;;;;;;29.31;44.80;99585.44;5005095;28;20490;-73
2022/10/07 08:25:15;;;;;;;3.08;1.60;;;;;;;29.80;43.12;99583.94;5000049;28;20120;-73
2022/10/07 08:27:40;;;;;;;9.63;1.80;;;;;;;29.36;43.19;99588.16;5005818;28;20114;-71
2022/10/07 08:30:07;;;;;;;4.88;1.58;;;;;;;28.63;43.30;99587.75;4993965;28;20034;-71
2022/10/07 08:32:33;;;;;;;4.45;1.90;;;;;;;28.35;42.96;99586.81;4996768;28;20034;-69
2022/10/07 08:34:58;;;;;;;10.38;1.60;;;;;;;28.96;43.53;99578.59;4999159;28;20052;-71
2022/10/07 08:37:23;;;;;;;4.57;1.65;;;;;;;28.41;42.99;99580.03;5005618;28;20029;-71
2022/10/07 08:39:48;;;;;;;5.65;2.03;;;;;;;27.09;45.58;99576.97;5000561;28;20050;-75
2022/10/07 08:42:32;;;;;;;3.97;1.70;;;;;;;28.24;43.99;99565.00;4998865;28;20468;-69
2022/10/07 08:44:58;;;;;;;6.43;2.08;;;;;;;28.72;43.14;99562.03;5001808;28;20326;-79
2022/10/07 08:47:37;;;;;;;6.45;2.25;;;;;;;27.59;44.30;99571.16;5005252;28;20030;-73
2022/10/07 08:50:21;;;;;;;5.35;2.15;;;;;;;27.38;45.10;99565.84;5001386;28;20058;-76
2022/10/07 08:52:52;;;;;;;4.05;1.80;;;;;;;27.93;44.70;99565.47;5004718;28;20022;-77
2022/10/07 08:56:05;;;;;;;7.35;2.30;;;;;;;27.98;45.38;99568.16;5005573;28;20029;-74
2022/10/07 08:58:50;;;;;;;6.70;2.15;;;;;;;27.40;46.10;99566.38;5004941;28;20029;-74
2022/10/07 09:01:26;;;;;;;5.47;2.28;;;;;;;27.71;45.33;99566.81;5004597;28;20394;-74
2022/10/07 09:04:05;;;;;;;6.93;2.47;;;;;;;28.49;44.33;99550.69;5002535;28;20509;-73
2022/10/07 09:06:54;;;;;;;7.97;1.70;;;;;;;28.90;45.15;99555.56;4993204;28;20033;-69
2022/10/07 09:09:26;;;;;;;4.45;1.88;;;;;;;29.84;42.17;99540.31;5003239;28;20067;-75
2022/10/07 09:11:54;;;;;;;7.05;1.95;;;;;;;31.00;39.58;99543.34;5005597;28;20406;-75
2022/10/07 09:14:29;;;;;;;4.63;2.05;;;;;;;30.63;38.85;99543.75;5000951;28;20387;-67
2022/10/07 09:17:09;;;;;;;5.13;1.95;;;;;;;30.63;39.70;99541.81;4999284;28;20087;-69
2022/10/07 09:19:42;;;;;;;7.13;2.20;;;;;;;30.01;39.55;99538.84;5001711;28;20384;-69
2022/10/07 09:22:18;;;;;;;3.45;2.10;;;;;;;30.63;39.51;99533.44;5005374;28;20149;-67
2022/10/07 09:24:45;;;;;;;5.32;1.55;;;;;;;31.55;38.55;99524.50;5001599;28;20523;-67
2022/10/07 09:27:16;;;;;;;8.73;1.80;;;;;;;30.71;39.31;99532.66;5003328;28;20029;-68
2022/10/07 09:29:42;;;;;;;6.15;1.85;;;;;;;29.73;42.02;99524.94;5003775;28;20025;-67
2022/10/07 09:32:13;;;;;;;4.70;1.70;;;;;;;29.00;41.70;99521.09;5003830;28;20547;-68
2022/10/07 09:34:38;;;;;;;6.53;1.80;;;;;;;29.80;40.61;99519.78;5001959;28;20398;-72
2022/10/07 09:37:18;;;;;;;3.88;1.67;;;;;;;30.39;40.09;99505.00;5000903;28;20033;-77
2022/10/07 09:39:45;;;;;;;6.32;1.70;;;;;;;30.28;39.42;99519.22;5003062;28;20022;-73
2022/10/07 09:42:42;;;;;;;6.03;1.60;;;;;;;30.61;39.82;99510.56;5009759;28;20029;-76
2022/10/07 09:45:21;;;;;;;4.05;1.88;;;;;;;29.41;41.36;99498.84;4998763;28;20053;-73
2022/10/07 09:47:56;;;;;;;10.73;2.10;;;;;;;29.77;41.03;99502.84;4997423;28;20033;-73
2022/10/07 09:50:38;;;;;;;7.93;2.10;;;;;;;29.18;41.82;99502.66;5004197;28;20431;-74
2022/10/07 09:53:19;;;;;;;5.80;2.08;;;;;;;29.35;41.30;99505.66;5001471;28;20504;-73
2022/10/07 09:55:45;;;;;;;6.55;2.20;;;;;;;27.42;44.63;99522.44;4998563;28;20030;-73
2022/10/07 09:58:18;;;;;;;2.88;1.65;;;;;;;28.89;42.53;99508.50;5002419;28;20076;-73
2022/10/07 10:00:49;;;;;;;3.50;1.90;;;;;;;30.63;39.07;99491.53;4998925;28;20105;-73
2022/10/07 10:03:16;;;;;;;4.93;1.75;;;;;;;30.42;39.99;99495.97;5000121;28;20995;-73
2022/10/07 10:05:56;;;;;;;4.90;1.85;;;;;;;29.82;40.47;99506.34;4999709;28;20038;-70
2022/10/07 10:08:29;;;;;;;5.90;1.98;;;;;;;30.52;40.18;99496.56;5001335;28;20434;-70
2022/10/07 10:11:03;;;;;;;4.07;1.80;;;;;;;30.66;39.93;99485.31;5003290;28;20030;-70
2022/10/07 10:13:39;;;;;;;4.20;1.95;;;;;;;30.38;40.02;99497.78;5003638;28;20042;-70
2022/10/07 10:16:26;;;;;;;4.28;1.92;;;;;;;31.31;39.32;99488.53;5002949;28;20049;-70
2022/10/07 10:18:53;;;;;;;5.90;1.92;;;;;;;30.11;40.74;99486.38;5005222;28;20111;-70
2022/10/07 10:21:18;;;;;;;4.53;1.83;;;;;;;30.72;39.30;99486.81;5008480;28;20026;-70
2022/10/07 10:23:51;;;;;;;3.40;1.75;;;;;;;31.05;39.73;99475.31;5004840;28;20060;-70
2022/10/07 10:26:31;;;;;;;8.20;1.85;;;;;;;31.90;37.83;99476.97;5005608;28;20519;-71
2022/10/07 10:29:16;;;;;;;9.95;2.00;;;;;;;31.77;37.46;99481.59;5001436;28;20034;-70
2022/10/07 10:31:59;;;;;;;6.43;1.90;;;;;;;31.15;38.08;99471.38;5012034;28;20026;-70
2022/10/07 10:34:25;;;;;;;4.47;1.80;;;;;;;29.93;39.38;99476.22;5005620;28;20029;-70
2022/10/07 10:36:59;;;;;;;8.53;2.10;;;;;;;29.66;40.57;99449.25;5007148;28;20091;-70
2022/10/07 10:39:51;;;;;;;8.23;2.17;;;;;;;30.73;39.19;99460.53;5006082;28;20037;-71
2022/10/07 10:42:24;;;;;;;7.35;1.98;;;;;;;31.03;38.91;99455.25;4993017;28;20137;-70
2022/10/07 10:45:14;;;;;;;4.60;2.15;;;;;;;30.33;39.38;99452.06;5010315;28;20534;-71
2022/10/07 10:48:13;;;;;;;7.53;2.63;;;;;;;30.58;39.32;99450.59;5004524;28;20030;-70
2022/10/07 10:50:45;;;;;;;5.97;1.92;;;;;;;30.84;39.50;99446.28;5004431;28;20451;-71
2022/10/07 10:53:50;;;;;;;5.63;2.55;;;;;;;31.57;37.36;99446.66;5010651;28;20025;-70
2022/10/07 10:56:26;;;;;;;4.43;1.75;;;;;;;30.39;39.83;99429.63;5006528;28;20034;-69
2022/10/07 10:59:02;;;;;;;7.25;2.03;;;;;;;30.06;41.15;99427.91;5002983;28;20038;-69
2022/10/07 11:01:36;;;;;;;5.97;1.80;;;;;;;31.01;39.59;99422.03;5002093;28;20026;-69
2022/10/07 11:04:13;;;;;;;8.45;1.90;;;;;;;30.46;39.79;99421.63;5003934;28;20137;-69
2022/10/07 11:06:43;;;;;;;2.83;1.63;;;;;;;31.43;38.03;99418.84;5006521;28;20038;-69
2022/10/07 11:09:44;;;;;;;6.13;2.05;;;;;;;30.84;38.82;99415.56;5002141;28;20092;-69
2022/10/07 11:12:23;;;;;;;3.42;1.52;;;;;;;31.48;37.74;99413.09;4997185;28;20030;-71
2022/10/07 11:14:56;;;;;;;3.92;1.80;;;;;;;31.60;38.15;99387.28;5003919;28;20542;-70
2022/10/07 11:17:29;;;;;;;5.43;2.10;;;;;;;30.87;38.82;99406.56;5000803;28;20034;-69
2022/10/07 11:20:11;;;;;;;4.85;1.70;;;;;;;31.01;38.66;99396.06;5006971;28;20530;-68
2022/10/07 11:22:42;;;;;;;3.72;1.55;;;;;;;30.79;38.94;99375.44;5004389;28;20442;-69
2022/10/07 11:25:26;;;;;;;7.72;1.98;;;;;;;30.52;40.40;99392.41;5004811;28;20030;-75
2022/10/07 11:27:54;;;;;;;6.03;2.20;;;;;;;31.10;38.23;99385.72;5005502;28;20032;-72
2022/10/07 11:30:22;;;;;;;4.25;2.13;;;;;;;29.80;40.20;99391.44;4998285;28;20427;-68
2022/10/07 11:33:12;;;;;;;4.00;2.17;;;;;;;29.00;41.44;99391.00;5003816;28;20046;-69
2022/10/07 11:35:46;;;;;;;7.95;2.33;;;;;;;30.35;39.66;99374.41;5000727;28;20178;-68
2022/10/07 11:38:26;;;;;;;8.63;2.30;;;;;;;30.66;39.48;99384.75;5007017;28;20506;-68
2022/10/07 11:40:58;;;;;;;3.65;2.03;;;;;;;30.31;39.49;99372.59;4994657;28;20128;-74
2022/10/07 11:43:32;;;;;;;6.95;2.03;;;;;;;30.72;39.17;99372.28;4995015;28;20033;-68
2022/10/07 11:46:13;;;;;;;7.43;1.92;;;;;;;30.08;39.80;99363.41;5001725;28;20064;-68
2022/10/07 11:48:44;;;;;;;8.20;1.60;;;;;;;29.35;42.17;99366.28;5002248;28;20126;-73